Belgrade, MN (56312)

7:01 PM CDT on August 21, 2014 (GMT -0500)
MNDOT Georgeville MN-55 Mile Post 98 | Change Station
CLOSE
Current Station
Personal Weather Station
Location: Belgrade, MN
Elevation: 1249 ft
Nearby Weather Stations

Elev 1249 ft 45.43 °N, 94.93 °W | Updated 1 day ago

Thunderstorm
Thunderstorm
77 °F
Feels Like 77 °F
N
7
Wind Variable Wind from NW
Gusts 7 mph

Today
High -- | Low -- °F
--% Chance of Precip.
Yesterday
High -- | Low -- °F
Precip. -- in
6:27 AM 8:17 PM
Waning Crescent, 11% visible
Pressure 29.84 in
Visibility 7.0 miles
Clouds Scattered Clouds 1500 ft
Mostly Cloudy 4800 ft
Dew Point 72 °F
Humidity 85%
Rainfall -9999.00 in
Snow Depth Not available.
UV 0 out of 12
Pollen 3.90 out of 12
Air Quality Not available.
Flu Activity Not available.
METAR KPEX 212354Z AUTO 00000KT 7SM SCT015 BKN048 24/21 A2984 RMK AO2 T02380209 10245 20229

More Conditions Fewer Conditions

Pressure 29.84 in
Visibility 7.0 miles
Clouds Scattered Clouds 1500 ft
Mostly Cloudy 4800 ft
Dew Point 72 °F
Humidity 85%
Rainfall -9999.00 in
Snow Depth Not available.
UV 0 out of 12
Pollen 3.90 out of 12
Air Quality Not available.
Flu Activity Not available.
METAR KPEX 212354Z AUTO 00000KT 7SM SCT015 BKN048 24/21 A2984 RMK AO2 T02380209 10245 20229

More Conditions Fewer Conditions

10-Day Weather Forecast

Almanac

Astronomy

Aug. 21, 2014 Rise Set
Actual Time 6:27 AM CDT 8:17 PM CDT
Civil Twilight 5:56 AM CDT 8:48 PM CDT
Nautical Twilight 5:17 AM CDT 9:27 PM CDT
Astronomical Twilight 4:35 AM CDT 10:09 PM CDT
Moon 2:54 AM CDT (8/21) 5:50 PM CDT (8/21)
Length of Visible Light 14h 52m
Length of Day
13h 49m
Tomorrow will be 2m 57s shorter.
Waning Crescent, 11% of the Moon is Illuminated
Today
Waning Crescent
Aug 25
New
Sep 2
First Quarter
Sep 8
Full
Sep 15
Last Quarter

Today's Extremes

State Highs State Lows

Community

WunderPhotos

Upload Photos

1,746,059 photos uploaded!

Nearby

Snow Depth

Station Depth Elevation
No new snow has been reported.

Earthquake Activity

City Distance Mag. Time & Date
No recent earthquake activity has been reported nearby.
Minimum magnitude displayed is 2.5.

Coastal Water Temperatures

Place Temperature
No Stations Reporting

Nearby Weather Stations